sensor_id;sensor_type;location;lat;lon;timestamp;P1;durP1;ratioP1;P2;durP2;ratioP2
10894;SDS011;5500;49.886;8.074;2023-03-31T00:00:43;9.17;;;2.60;;
10894;SDS011;5500;49.886;8.074;2023-03-31T00:03:11;5.27;;;2.20;;
10894;SDS011;5500;49.886;8.074;2023-03-31T00:05:47;8.33;;;2.37;;
10894;SDS011;5500;49.886;8.074;2023-03-31T00:08:20;6.73;;;2.10;;
10894;SDS011;5500;49.886;8.074;2023-03-31T00:10:47;9.60;;;2.73;;
10894;SDS011;5500;49.886;8.074;2023-03-31T00:13:15;10.40;;;2.27;;
10894;SDS011;5500;49.886;8.074;2023-03-31T00:15:43;7.30;;;1.90;;
10894;SDS011;5500;49.886;8.074;2023-03-31T00:18:11;5.43;;;2.13;;
10894;SDS011;5500;49.886;8.074;2023-03-31T00:20:39;5.07;;;2.00;;
10894;SDS011;5500;49.886;8.074;2023-03-31T00:23:08;9.27;;;2.50;;
10894;SDS011;5500;49.886;8.074;2023-03-31T00:25:39;6.33;;;1.93;;
10894;SDS011;5500;49.886;8.074;2023-03-31T00:28:07;8.60;;;2.03;;
10894;SDS011;5500;49.886;8.074;2023-03-31T00:30:35;6.97;;;2.20;;
10894;SDS011;5500;49.886;8.074;2023-03-31T00:33:02;5.03;;;2.40;;
10894;SDS011;5500;49.886;8.074;2023-03-31T00:35:30;10.10;;;2.40;;
10894;SDS011;5500;49.886;8.074;2023-03-31T00:37:58;5.30;;;2.23;;
10894;SDS011;5500;49.886;8.074;2023-03-31T00:40:25;3.37;;;1.90;;
10894;SDS011;5500;49.886;8.074;2023-03-31T00:42:55;9.90;;;2.37;;
10894;SDS011;5500;49.886;8.074;2023-03-31T00:45:24;7.63;;;2.70;;
10894;SDS011;5500;49.886;8.074;2023-03-31T00:47:54;6.57;;;1.97;;
10894;SDS011;5500;49.886;8.074;2023-03-31T00:50:26;7.07;;;2.57;;
10894;SDS011;5500;49.886;8.074;2023-03-31T00:52:57;7.63;;;2.43;;
10894;SDS011;5500;49.886;8.074;2023-03-31T00:55:29;9.37;;;2.33;;
10894;SDS011;5500;49.886;8.074;2023-03-31T00:58:01;7.83;;;2.70;;
10894;SDS011;5500;49.886;8.074;2023-03-31T01:00:29;7.23;;;2.27;;
10894;SDS011;5500;49.886;8.074;2023-03-31T01:02:58;8.47;;;2.23;;
10894;SDS011;5500;49.886;8.074;2023-03-31T01:05:29;10.27;;;3.47;;
10894;SDS011;5500;49.886;8.074;2023-03-31T01:07:59;7.67;;;2.40;;
10894;SDS011;5500;49.886;8.074;2023-03-31T01:10:28;5.87;;;2.30;;
10894;SDS011;5500;49.886;8.074;2023-03-31T01:12:56;6.13;;;2.77;;
10894;SDS011;5500;49.886;8.074;2023-03-31T01:15:25;5.57;;;2.17;;
10894;SDS011;5500;49.886;8.074;2023-03-31T01:17:53;6.43;;;2.27;;
10894;SDS011;5500;49.886;8.074;2023-03-31T01:20:24;7.77;;;2.47;;
10894;SDS011;5500;49.886;8.074;2023-03-31T01:23:21;5.97;;;2.33;;
10894;SDS011;5500;49.886;8.074;2023-03-31T01:28:52;5.17;;;2.90;;
10894;SDS011;5500;49.886;8.074;2023-03-31T01:31:38;6.53;;;2.00;;
10894;SDS011;5500;49.886;8.074;2023-03-31T01:34:33;5.43;;;2.53;;
10894;SDS011;5500;49.886;8.074;2023-03-31T01:37:29;5.70;;;2.20;;
10894;SDS011;5500;49.886;8.074;2023-03-31T01:40:22;6.10;;;2.30;;
10894;SDS011;5500;49.886;8.074;2023-03-31T01:42:54;5.93;;;2.43;;
10894;SDS011;5500;49.886;8.074;2023-03-31T01:45:30;11.33;;;3.17;;
10894;SDS011;5500;49.886;8.074;2023-03-31T01:48:05;6.23;;;2.40;;
10894;SDS011;5500;49.886;8.074;2023-03-31T01:50:35;6.50;;;2.77;;
10894;SDS011;5500;49.886;8.074;2023-03-31T01:53:05;8.73;;;2.70;;
10894;SDS011;5500;49.886;8.074;2023-03-31T01:55:39;10.03;;;2.63;;
10894;SDS011;5500;49.886;8.074;2023-03-31T01:58:10;7.60;;;2.40;;
10894;SDS011;5500;49.886;8.074;2023-03-31T02:00:39;10.87;;;2.63;;
10894;SDS011;5500;49.886;8.074;2023-03-31T02:03:10;9.80;;;2.60;;
10894;SDS011;5500;49.886;8.074;2023-03-31T02:05:43;8.27;;;2.20;;
10894;SDS011;5500;49.886;8.074;2023-03-31T02:08:14;10.33;;;2.47;;
10894;SDS011;5500;49.886;8.074;2023-03-31T02:10:44;7.77;;;2.20;;
10894;SDS011;5500;49.886;8.074;2023-03-31T02:13:14;6.73;;;2.03;;
10894;SDS011;5500;49.886;8.074;2023-03-31T02:15:44;5.17;;;2.00;;
10894;SDS011;5500;49.886;8.074;2023-03-31T02:18:14;8.27;;;2.63;;
10894;SDS011;5500;49.886;8.074;2023-03-31T02:20:44;3.43;;;1.60;;
10894;SDS011;5500;49.886;8.074;2023-03-31T02:23:14;8.33;;;1.60;;
10894;SDS011;5500;49.886;8.074;2023-03-31T02:25:46;7.50;;;2.27;;
10894;SDS011;5500;49.886;8.074;2023-03-31T02:28:17;6.70;;;2.50;;
10894;SDS011;5500;49.886;8.074;2023-03-31T02:30:49;7.50;;;1.80;;
10894;SDS011;5500;49.886;8.074;2023-03-31T02:33:19;6.53;;;1.93;;
10894;SDS011;5500;49.886;8.074;2023-03-31T02:35:47;7.30;;;1.70;;
10894;SDS011;5500;49.886;8.074;2023-03-31T02:38:14;5.43;;;1.93;;
10894;SDS011;5500;49.886;8.074;2023-03-31T02:40:42;8.27;;;1.90;;
10894;SDS011;5500;49.886;8.074;2023-03-31T02:43:11;5.90;;;2.27;;
10894;SDS011;5500;49.886;8.074;2023-03-31T02:45:40;8.80;;;2.30;;
10894;SDS011;5500;49.886;8.074;2023-03-31T02:48:10;8.20;;;2.30;;
10894;SDS011;5500;49.886;8.074;2023-03-31T02:50:48;7.60;;;1.90;;
10894;SDS011;5500;49.886;8.074;2023-03-31T02:53:30;5.40;;;1.97;;
10894;SDS011;5500;49.886;8.074;2023-03-31T02:56:10;5.33;;;1.57;;
10894;SDS011;5500;49.886;8.074;2023-03-31T02:58:54;8.70;;;2.77;;
10894;SDS011;5500;49.886;8.074;2023-03-31T03:01:34;8.53;;;2.20;;
10894;SDS011;5500;49.886;8.074;2023-03-31T03:04:10;3.77;;;1.60;;
10894;SDS011;5500;49.886;8.074;2023-03-31T03:06:47;4.57;;;1.77;;
10894;SDS011;5500;49.886;8.074;2023-03-31T03:09:24;4.50;;;1.77;;
10894;SDS011;5500;49.886;8.074;2023-03-31T03:12:00;6.13;;;1.73;;
10894;SDS011;5500;49.886;8.074;2023-03-31T03:14:35;3.90;;;1.33;;
10894;SDS011;5500;49.886;8.074;2023-03-31T03:17:08;5.33;;;1.53;;
10894;SDS011;5500;49.886;8.074;2023-03-31T03:19:38;4.83;;;1.60;;
10894;SDS011;5500;49.886;8.074;2023-03-31T03:22:07;3.33;;;1.83;;
10894;SDS011;5500;49.886;8.074;2023-03-31T03:24:35;4.47;;;1.40;;
10894;SDS011;5500;49.886;8.074;2023-03-31T03:27:05;5.50;;;1.60;;
10894;SDS011;5500;49.886;8.074;2023-03-31T03:29:32;5.90;;;1.63;;
10894;SDS011;5500;49.886;8.074;2023-03-31T03:32:01;6.07;;;1.73;;
10894;SDS011;5500;49.886;8.074;2023-03-31T03:34:29;11.47;;;1.77;;
10894;SDS011;5500;49.886;8.074;2023-03-31T03:36:56;6.83;;;1.80;;
10894;SDS011;5500;49.886;8.074;2023-03-31T03:39:24;5.27;;;1.80;;
10894;SDS011;5500;49.886;8.074;2023-03-31T03:41:52;6.50;;;2.17;;
10894;SDS011;5500;49.886;8.074;2023-03-31T03:44:19;3.37;;;1.37;;
10894;SDS011;5500;49.886;8.074;2023-03-31T03:46:47;4.27;;;1.73;;
10894;SDS011;5500;49.886;8.074;2023-03-31T03:49:16;8.47;;;2.20;;
10894;SDS011;5500;49.886;8.074;2023-03-31T03:51:44;3.37;;;1.70;;
10894;SDS011;5500;49.886;8.074;2023-03-31T03:54:11;4.73;;;1.67;;
10894;SDS011;5500;49.886;8.074;2023-03-31T03:56:39;12.07;;;2.20;;
10894;SDS011;5500;49.886;8.074;2023-03-31T03:59:07;4.50;;;1.80;;
10894;SDS011;5500;49.886;8.074;2023-03-31T04:01:35;4.83;;;1.70;;
10894;SDS011;5500;49.886;8.074;2023-03-31T04:04:02;7.07;;;1.50;;
10894;SDS011;5500;49.886;8.074;2023-03-31T04:06:32;3.03;;;1.50;;
10894;SDS011;5500;49.886;8.074;2023-03-31T04:08:59;5.67;;;1.63;;
10894;SDS011;5500;49.886;8.074;2023-03-31T04:11:27;4.17;;;1.93;;
10894;SDS011;5500;49.886;8.074;2023-03-31T04:13:55;7.73;;;1.90;;
10894;SDS011;5500;49.886;8.074;2023-03-31T04:16:23;3.13;;;1.23;;
10894;SDS011;5500;49.886;8.074;2023-03-31T04:18:51;8.63;;;1.97;;
10894;SDS011;5500;49.886;8.074;2023-03-31T04:21:22;2.87;;;1.37;;
10894;SDS011;5500;49.886;8.074;2023-03-31T04:23:52;4.43;;;1.70;;
10894;SDS011;5500;49.886;8.074;2023-03-31T04:26:27;5.67;;;2.00;;
10894;SDS011;5500;49.886;8.074;2023-03-31T04:29:04;7.63;;;1.87;;
10894;SDS011;5500;49.886;8.074;2023-03-31T04:31:32;6.70;;;1.90;;
10894;SDS011;5500;49.886;8.074;2023-03-31T04:34:04;6.20;;;2.10;;
10894;SDS011;5500;49.886;8.074;2023-03-31T04:36:32;7.47;;;1.97;;
10894;SDS011;5500;49.886;8.074;2023-03-31T04:39:01;4.90;;;1.57;;
10894;SDS011;5500;49.886;8.074;2023-03-31T04:41:28;7.17;;;1.90;;
10894;SDS011;5500;49.886;8.074;2023-03-31T04:43:56;5.13;;;1.90;;
10894;SDS011;5500;49.886;8.074;2023-03-31T04:46:24;5.40;;;1.87;;
10894;SDS011;5500;49.886;8.074;2023-03-31T04:48:53;4.93;;;2.00;;
10894;SDS011;5500;49.886;8.074;2023-03-31T04:51:20;9.80;;;2.50;;
10894;SDS011;5500;49.886;8.074;2023-03-31T04:53:48;6.67;;;2.00;;
10894;SDS011;5500;49.886;8.074;2023-03-31T04:56:17;6.50;;;2.17;;
10894;SDS011;5500;49.886;8.074;2023-03-31T04:58:45;5.90;;;2.10;;
10894;SDS011;5500;49.886;8.074;2023-03-31T05:01:12;9.83;;;2.27;;
10894;SDS011;5500;49.886;8.074;2023-03-31T05:03:43;6.00;;;2.00;;
10894;SDS011;5500;49.886;8.074;2023-03-31T05:06:13;4.57;;;1.80;;
10894;SDS011;5500;49.886;8.074;2023-03-31T05:08:41;8.27;;;2.10;;
10894;SDS011;5500;49.886;8.074;2023-03-31T05:11:09;6.27;;;2.20;;
10894;SDS011;5500;49.886;8.074;2023-03-31T05:13:38;5.63;;;1.93;;
10894;SDS011;5500;49.886;8.074;2023-03-31T05:16:06;6.43;;;2.57;;
10894;SDS011;5500;49.886;8.074;2023-03-31T05:18:35;11.63;;;2.23;;
10894;SDS011;5500;49.886;8.074;2023-03-31T05:21:07;6.60;;;1.97;;
10894;SDS011;5500;49.886;8.074;2023-03-31T05:23:36;5.97;;;1.90;;
10894;SDS011;5500;49.886;8.074;2023-03-31T05:26:03;8.57;;;2.20;;
10894;SDS011;5500;49.886;8.074;2023-03-31T05:28:33;7.10;;;2.10;;
10894;SDS011;5500;49.886;8.074;2023-03-31T05:31:03;4.67;;;1.77;;
10894;SDS011;5500;49.886;8.074;2023-03-31T05:33:31;7.40;;;2.33;;
10894;SDS011;5500;49.886;8.074;2023-03-31T05:35:59;5.20;;;2.57;;
10894;SDS011;5500;49.886;8.074;2023-03-31T05:38:27;4.63;;;1.93;;
10894;SDS011;5500;49.886;8.074;2023-03-31T05:40:56;7.90;;;2.00;;
10894;SDS011;5500;49.886;8.074;2023-03-31T05:43:24;8.83;;;1.73;;
10894;SDS011;5500;49.886;8.074;2023-03-31T05:45:52;4.83;;;2.13;;
10894;SDS011;5500;49.886;8.074;2023-03-31T05:48:21;7.17;;;2.03;;
10894;SDS011;5500;49.886;8.074;2023-03-31T05:50:49;7.00;;;1.80;;
10894;SDS011;5500;49.886;8.074;2023-03-31T05:53:16;7.73;;;2.13;;
10894;SDS011;5500;49.886;8.074;2023-03-31T05:55:44;7.53;;;1.83;;
10894;SDS011;5500;49.886;8.074;2023-03-31T05:58:11;7.53;;;2.20;;
10894;SDS011;5500;49.886;8.074;2023-03-31T06:00:39;8.43;;;2.40;;
10894;SDS011;5500;49.886;8.074;2023-03-31T06:03:09;7.97;;;2.43;;
10894;SDS011;5500;49.886;8.074;2023-03-31T06:05:38;6.73;;;2.23;;
10894;SDS011;5500;49.886;8.074;2023-03-31T06:08:06;8.07;;;2.20;;
10894;SDS011;5500;49.886;8.074;2023-03-31T06:10:34;5.60;;;2.33;;
10894;SDS011;5500;49.886;8.074;2023-03-31T06:13:04;8.43;;;2.50;;
10894;SDS011;5500;49.886;8.074;2023-03-31T06:15:32;8.30;;;2.30;;
10894;SDS011;5500;49.886;8.074;2023-03-31T06:17:59;6.93;;;2.93;;
10894;SDS011;5500;49.886;8.074;2023-03-31T06:20:27;6.17;;;2.30;;
10894;SDS011;5500;49.886;8.074;2023-03-31T06:22:56;7.93;;;2.67;;
10894;SDS011;5500;49.886;8.074;2023-03-31T06:25:26;7.77;;;2.70;;
10894;SDS011;5500;49.886;8.074;2023-03-31T06:28:02;8.67;;;2.53;;
10894;SDS011;5500;49.886;8.074;2023-03-31T06:30:31;7.80;;;3.13;;
10894;SDS011;5500;49.886;8.074;2023-03-31T06:32:59;8.57;;;3.07;;
10894;SDS011;5500;49.886;8.074;2023-03-31T06:37:54;6.83;;;2.60;;
10894;SDS011;5500;49.886;8.074;2023-03-31T06:40:24;11.30;;;3.27;;
10894;SDS011;5500;49.886;8.074;2023-03-31T06:42:51;6.07;;;2.90;;
10894;SDS011;5500;49.886;8.074;2023-03-31T06:45:19;7.57;;;2.80;;
10894;SDS011;5500;49.886;8.074;2023-03-31T06:47:47;7.73;;;3.23;;
10894;SDS011;5500;49.886;8.074;2023-03-31T06:50:14;6.37;;;2.87;;
10894;SDS011;5500;49.886;8.074;2023-03-31T06:52:42;4.60;;;2.90;;
10894;SDS011;5500;49.886;8.074;2023-03-31T06:55:10;11.10;;;3.80;;
10894;SDS011;5500;49.886;8.074;2023-03-31T06:57:39;6.17;;;2.80;;
10894;SDS011;5500;49.886;8.074;2023-03-31T07:00:07;8.20;;;2.83;;
10894;SDS011;5500;49.886;8.074;2023-03-31T07:02:36;7.43;;;3.60;;
10894;SDS011;5500;49.886;8.074;2023-03-31T07:05:04;8.37;;;2.97;;
10894;SDS011;5500;49.886;8.074;2023-03-31T07:07:32;4.87;;;2.27;;
10894;SDS011;5500;49.886;8.074;2023-03-31T07:10:00;3.70;;;1.80;;
10894;SDS011;5500;49.886;8.074;2023-03-31T07:12:28;3.50;;;1.67;;
10894;SDS011;5500;49.886;8.074;2023-03-31T07:15:00;2.33;;;1.23;;
10894;SDS011;5500;49.886;8.074;2023-03-31T07:17:27;5.50;;;1.93;;
10894;SDS011;5500;49.886;8.074;2023-03-31T07:19:55;4.90;;;1.70;;
10894;SDS011;5500;49.886;8.074;2023-03-31T07:22:24;3.40;;;1.87;;
10894;SDS011;5500;49.886;8.074;2023-03-31T07:24:51;1.80;;;1.57;;
10894;SDS011;5500;49.886;8.074;2023-03-31T07:27:19;4.13;;;2.00;;
10894;SDS011;5500;49.886;8.074;2023-03-31T07:29:50;2.87;;;2.10;;
10894;SDS011;5500;49.886;8.074;2023-03-31T07:32:19;5.00;;;2.07;;
10894;SDS011;5500;49.886;8.074;2023-03-31T07:34:49;5.73;;;2.80;;
10894;SDS011;5500;49.886;8.074;2023-03-31T07:37:16;3.63;;;2.20;;
10894;SDS011;5500;49.886;8.074;2023-03-31T07:39:44;7.83;;;2.47;;
10894;SDS011;5500;49.886;8.074;2023-03-31T07:42:12;3.43;;;2.00;;
10894;SDS011;5500;49.886;8.074;2023-03-31T07:44:39;2.97;;;1.90;;
10894;SDS011;5500;49.886;8.074;2023-03-31T07:47:07;5.00;;;2.27;;
10894;SDS011;5500;49.886;8.074;2023-03-31T07:49:36;4.20;;;2.07;;
10894;SDS011;5500;49.886;8.074;2023-03-31T07:52:04;4.63;;;2.17;;
10894;SDS011;5500;49.886;8.074;2023-03-31T07:54:31;4.53;;;2.00;;
10894;SDS011;5500;49.886;8.074;2023-03-31T07:57:01;3.37;;;1.80;;
10894;SDS011;5500;49.886;8.074;2023-03-31T07:59:31;4.57;;;2.33;;
10894;SDS011;5500;49.886;8.074;2023-03-31T08:01:59;4.03;;;2.00;;
10894;SDS011;5500;49.886;8.074;2023-03-31T08:04:27;3.07;;;2.20;;
10894;SDS011;5500;49.886;8.074;2023-03-31T08:06:56;4.57;;;2.00;;
10894;SDS011;5500;49.886;8.074;2023-03-31T08:09:23;6.40;;;2.13;;
10894;SDS011;5500;49.886;8.074;2023-03-31T08:11:51;2.90;;;1.70;;
10894;SDS011;5500;49.886;8.074;2023-03-31T08:14:19;6.10;;;2.00;;
10894;SDS011;5500;49.886;8.074;2023-03-31T08:17:03;3.70;;;2.00;;
10894;SDS011;5500;49.886;8.074;2023-03-31T08:19:31;6.37;;;2.30;;
10894;SDS011;5500;49.886;8.074;2023-03-31T08:22:00;6.33;;;1.93;;
10894;SDS011;5500;49.886;8.074;2023-03-31T08:24:27;5.63;;;2.40;;
10894;SDS011;5500;49.886;8.074;2023-03-31T08:26:55;3.77;;;2.10;;
10894;SDS011;5500;49.886;8.074;2023-03-31T08:29:23;3.27;;;2.00;;
10894;SDS011;5500;49.886;8.074;2023-03-31T08:31:53;7.23;;;2.10;;
10894;SDS011;5500;49.886;8.074;2023-03-31T08:34:21;2.47;;;1.40;;
10894;SDS011;5500;49.886;8.074;2023-03-31T08:36:49;3.77;;;1.90;;
10894;SDS011;5500;49.886;8.074;2023-03-31T08:39:18;4.10;;;1.67;;
10894;SDS011;5500;49.886;8.074;2023-03-31T08:41:48;4.17;;;1.80;;
10894;SDS011;5500;49.886;8.074;2023-03-31T08:44:20;2.13;;;1.30;;
10894;SDS011;5500;49.886;8.074;2023-03-31T08:46:53;4.53;;;2.20;;
10894;SDS011;5500;49.886;8.074;2023-03-31T08:49:21;5.23;;;2.17;;
10894;SDS011;5500;49.886;8.074;2023-03-31T08:51:51;6.30;;;2.27;;
10894;SDS011;5500;49.886;8.074;2023-03-31T08:54:29;5.17;;;2.20;;
10894;SDS011;5500;49.886;8.074;2023-03-31T08:56:58;4.73;;;2.50;;
10894;SDS011;5500;49.886;8.074;2023-03-31T08:59:28;5.70;;;2.30;;
10894;SDS011;5500;49.886;8.074;2023-03-31T09:01:59;7.77;;;2.80;;
10894;SDS011;5500;49.886;8.074;2023-03-31T09:07:18;5.60;;;2.57;;
10894;SDS011;5500;49.886;8.074;2023-03-31T09:09:54;5.77;;;2.47;;
10894;SDS011;5500;49.886;8.074;2023-03-31T09:12:28;5.47;;;2.17;;
10894;SDS011;5500;49.886;8.074;2023-03-31T09:15:00;6.17;;;2.67;;
10894;SDS011;5500;49.886;8.074;2023-03-31T09:17:30;4.40;;;2.20;;
10894;SDS011;5500;49.886;8.074;2023-03-31T09:20:02;8.23;;;2.57;;
10894;SDS011;5500;49.886;8.074;2023-03-31T09:22:34;8.23;;;2.47;;
10894;SDS011;5500;49.886;8.074;2023-03-31T09:25:09;4.87;;;2.17;;
10894;SDS011;5500;49.886;8.074;2023-03-31T09:27:39;6.83;;;2.40;;
10894;SDS011;5500;49.886;8.074;2023-03-31T09:30:09;8.43;;;2.53;;
10894;SDS011;5500;49.886;8.074;2023-03-31T09:32:39;8.33;;;2.47;;
10894;SDS011;5500;49.886;8.074;2023-03-31T09:35:13;8.33;;;2.77;;
10894;SDS011;5500;49.886;8.074;2023-03-31T09:37:44;10.53;;;2.90;;
10894;SDS011;5500;49.886;8.074;2023-03-31T09:40:15;7.90;;;2.60;;
10894;SDS011;5500;49.886;8.074;2023-03-31T09:42:44;9.40;;;2.97;;
10894;SDS011;5500;49.886;8.074;2023-03-31T09:45:13;12.53;;;2.90;;
10894;SDS011;5500;49.886;8.074;2023-03-31T09:47:42;11.23;;;3.10;;
10894;SDS011;5500;49.886;8.074;2023-03-31T09:50:11;8.70;;;3.00;;
10894;SDS011;5500;49.886;8.074;2023-03-31T09:52:40;8.13;;;2.97;;
10894;SDS011;5500;49.886;8.074;2023-03-31T09:55:16;5.80;;;1.80;;
10894;SDS011;5500;49.886;8.074;2023-03-31T09:58:05;4.93;;;1.90;;
10894;SDS011;5500;49.886;8.074;2023-03-31T10:00:33;8.43;;;2.40;;
10894;SDS011;5500;49.886;8.074;2023-03-31T10:03:01;9.03;;;2.60;;
10894;SDS011;5500;49.886;8.074;2023-03-31T10:05:33;9.27;;;2.13;;
10894;SDS011;5500;49.886;8.074;2023-03-31T10:08:19;7.67;;;2.80;;
10894;SDS011;5500;49.886;8.074;2023-03-31T10:10:50;5.33;;;1.67;;
10894;SDS011;5500;49.886;8.074;2023-03-31T10:13:21;4.10;;;1.60;;
10894;SDS011;5500;49.886;8.074;2023-03-31T10:15:51;6.60;;;2.13;;
10894;SDS011;5500;49.886;8.074;2023-03-31T10:18:20;5.53;;;1.77;;
10894;SDS011;5500;49.886;8.074;2023-03-31T10:20:57;5.70;;;1.40;;
10894;SDS011;5500;49.886;8.074;2023-03-31T10:23:27;5.03;;;1.50;;
10894;SDS011;5500;49.886;8.074;2023-03-31T10:25:58;4.10;;;1.63;;
10894;SDS011;5500;49.886;8.074;2023-03-31T10:28:29;4.23;;;1.50;;
10894;SDS011;5500;49.886;8.074;2023-03-31T10:30:57;5.63;;;1.83;;
10894;SDS011;5500;49.886;8.074;2023-03-31T10:33:29;3.17;;;1.50;;
10894;SDS011;5500;49.886;8.074;2023-03-31T10:36:00;5.43;;;1.70;;
10894;SDS011;5500;49.886;8.074;2023-03-31T10:38:30;3.30;;;1.23;;
10894;SDS011;5500;49.886;8.074;2023-03-31T10:41:03;6.70;;;2.07;;
10894;SDS011;5500;49.886;8.074;2023-03-31T10:43:33;7.63;;;2.30;;
10894;SDS011;5500;49.886;8.074;2023-03-31T10:46:04;7.40;;;2.20;;
10894;SDS011;5500;49.886;8.074;2023-03-31T10:48:32;6.73;;;2.07;;
10894;SDS011;5500;49.886;8.074;2023-03-31T10:51:04;10.57;;;2.50;;
10894;SDS011;5500;49.886;8.074;2023-03-31T10:53:40;8.67;;;2.47;;
10894;SDS011;5500;49.886;8.074;2023-03-31T10:56:13;7.93;;;2.27;;
10894;SDS011;5500;49.886;8.074;2023-03-31T10:58:52;7.77;;;2.93;;
10894;SDS011;5500;49.886;8.074;2023-03-31T11:01:34;8.27;;;2.80;;
10894;SDS011;5500;49.886;8.074;2023-03-31T11:07:06;12.20;;;3.33;;
10894;SDS011;5500;49.886;8.074;2023-03-31T11:09:41;10.00;;;3.30;;
10894;SDS011;5500;49.886;8.074;2023-03-31T11:12:16;10.70;;;2.70;;
10894;SDS011;5500;49.886;8.074;2023-03-31T11:14:49;14.00;;;3.73;;
10894;SDS011;5500;49.886;8.074;2023-03-31T11:17:26;8.90;;;2.60;;
10894;SDS011;5500;49.886;8.074;2023-03-31T11:20:01;12.90;;;2.90;;
10894;SDS011;5500;49.886;8.074;2023-03-31T11:22:40;10.90;;;2.63;;
10894;SDS011;5500;49.886;8.074;2023-03-31T11:25:16;11.50;;;3.00;;
10894;SDS011;5500;49.886;8.074;2023-03-31T11:27:51;10.57;;;2.97;;
10894;SDS011;5500;49.886;8.074;2023-03-31T11:30:26;8.70;;;2.67;;
10894;SDS011;5500;49.886;8.074;2023-03-31T11:33:00;7.17;;;2.33;;
10894;SDS011;5500;49.886;8.074;2023-03-31T11:35:38;15.00;;;3.40;;
10894;SDS011;5500;49.886;8.074;2023-03-31T11:38:21;8.57;;;2.73;;
10894;SDS011;5500;49.886;8.074;2023-03-31T11:40:57;6.93;;;2.50;;
10894;SDS011;5500;49.886;8.074;2023-03-31T11:43:28;10.30;;;3.13;;
10894;SDS011;5500;49.886;8.074;2023-03-31T11:45:59;8.60;;;2.97;;
10894;SDS011;5500;49.886;8.074;2023-03-31T11:48:32;12.60;;;3.77;;
10894;SDS011;5500;49.886;8.074;2023-03-31T11:51:05;9.37;;;2.87;;
10894;SDS011;5500;49.886;8.074;2023-03-31T11:53:37;11.43;;;2.80;;
10894;SDS011;5500;49.886;8.074;2023-03-31T11:56:07;13.67;;;3.43;;
10894;SDS011;5500;49.886;8.074;2023-03-31T11:58:39;6.50;;;2.30;;
10894;SDS011;5500;49.886;8.074;2023-03-31T12:01:08;5.50;;;2.20;;
10894;SDS011;5500;49.886;8.074;2023-03-31T12:03:43;5.00;;;1.40;;
10894;SDS011;5500;49.886;8.074;2023-03-31T12:06:19;4.87;;;1.73;;
10894;SDS011;5500;49.886;8.074;2023-03-31T12:08:49;8.43;;;1.80;;
10894;SDS011;5500;49.886;8.074;2023-03-31T12:11:23;3.73;;;1.40;;
10894;SDS011;5500;49.886;8.074;2023-03-31T12:13:56;6.33;;;1.70;;
10894;SDS011;5500;49.886;8.074;2023-03-31T12:16:31;3.47;;;1.30;;
10894;SDS011;5500;49.886;8.074;2023-03-31T12:19:04;8.10;;;1.87;;
10894;SDS011;5500;49.886;8.074;2023-03-31T12:21:34;6.07;;;1.80;;
10894;SDS011;5500;49.886;8.074;2023-03-31T12:24:05;7.20;;;2.23;;
10894;SDS011;5500;49.886;8.074;2023-03-31T12:26:37;5.70;;;2.47;;
10894;SDS011;5500;49.886;8.074;2023-03-31T12:29:14;6.17;;;2.17;;
10894;SDS011;5500;49.886;8.074;2023-03-31T12:31:47;5.83;;;1.90;;
10894;SDS011;5500;49.886;8.074;2023-03-31T12:34:16;7.30;;;2.53;;
10894;SDS011;5500;49.886;8.074;2023-03-31T12:36:48;6.90;;;2.30;;
10894;SDS011;5500;49.886;8.074;2023-03-31T12:39:30;7.63;;;2.50;;
10894;SDS011;5500;49.886;8.074;2023-03-31T12:42:11;7.73;;;2.07;;
10894;SDS011;5500;49.886;8.074;2023-03-31T12:44:53;8.37;;;2.27;;
10894;SDS011;5500;49.886;8.074;2023-03-31T12:47:29;5.03;;;1.80;;
10894;SDS011;5500;49.886;8.074;2023-03-31T12:50:11;6.00;;;1.87;;
10894;SDS011;5500;49.886;8.074;2023-03-31T12:52:44;7.20;;;2.30;;
10894;SDS011;5500;49.886;8.074;2023-03-31T12:55:25;1.57;;;0.97;;
10894;SDS011;5500;49.886;8.074;2023-03-31T13:01:05;1.37;;;0.47;;
10894;SDS011;5500;49.886;8.074;2023-03-31T13:03:37;3.43;;;0.63;;
10894;SDS011;5500;49.886;8.074;2023-03-31T13:06:09;1.17;;;0.80;;
10894;SDS011;5500;49.886;8.074;2023-03-31T13:08:53;5.43;;;0.90;;
10894;SDS011;5500;49.886;8.074;2023-03-31T13:11:32;2.00;;;0.60;;
10894;SDS011;5500;49.886;8.074;2023-03-31T13:14:03;0.87;;;0.60;;
10894;SDS011;5500;49.886;8.074;2023-03-31T13:16:33;0.90;;;0.60;;
10894;SDS011;5500;49.886;8.074;2023-03-31T13:19:02;1.27;;;0.80;;
10894;SDS011;5500;49.886;8.074;2023-03-31T13:21:29;3.70;;;0.90;;
10894;SDS011;5500;49.886;8.074;2023-03-31T13:23:58;0.97;;;0.70;;
10894;SDS011;5500;49.886;8.074;2023-03-31T13:26:39;2.27;;;1.07;;
10894;SDS011;5500;49.886;8.074;2023-03-31T13:29:19;2.57;;;0.90;;
10894;SDS011;5500;49.886;8.074;2023-03-31T13:32:06;3.40;;;0.87;;
10894;SDS011;5500;49.886;8.074;2023-03-31T13:34:43;1.50;;;0.70;;
10894;SDS011;5500;49.886;8.074;2023-03-31T13:37:15;2.80;;;1.10;;
10894;SDS011;5500;49.886;8.074;2023-03-31T13:40:04;2.60;;;0.97;;
10894;SDS011;5500;49.886;8.074;2023-03-31T13:42:44;3.03;;;1.00;;
10894;SDS011;5500;49.886;8.074;2023-03-31T13:45:23;1.63;;;0.90;;
10894;SDS011;5500;49.886;8.074;2023-03-31T13:48:04;2.63;;;1.30;;
10894;SDS011;5500;49.886;8.074;2023-03-31T13:53:47;3.50;;;1.00;;
10894;SDS011;5500;49.886;8.074;2023-03-31T13:56:33;4.80;;;1.70;;
10894;SDS011;5500;49.886;8.074;2023-03-31T13:59:33;4.10;;;1.60;;
10894;SDS011;5500;49.886;8.074;2023-03-31T14:02:15;3.50;;;1.17;;
10894;SDS011;5500;49.886;8.074;2023-03-31T14:05:09;4.20;;;1.37;;
10894;SDS011;5500;49.886;8.074;2023-03-31T14:07:45;3.60;;;1.40;;
10894;SDS011;5500;49.886;8.074;2023-03-31T14:10:22;4.93;;;1.83;;
10894;SDS011;5500;49.886;8.074;2023-03-31T14:13:02;3.23;;;1.43;;
10894;SDS011;5500;49.886;8.074;2023-03-31T14:15:31;4.20;;;1.50;;
10894;SDS011;5500;49.886;8.074;2023-03-31T14:18:00;4.33;;;1.70;;
10894;SDS011;5500;49.886;8.074;2023-03-31T14:20:32;4.00;;;1.43;;
10894;SDS011;5500;49.886;8.074;2023-03-31T14:23:05;5.93;;;1.70;;
10894;SDS011;5500;49.886;8.074;2023-03-31T14:25:42;6.83;;;1.70;;
10894;SDS011;5500;49.886;8.074;2023-03-31T14:28:18;5.03;;;1.60;;
10894;SDS011;5500;49.886;8.074;2023-03-31T14:30:54;4.63;;;1.70;;
10894;SDS011;5500;49.886;8.074;2023-03-31T14:33:32;3.90;;;1.40;;
10894;SDS011;5500;49.886;8.074;2023-03-31T14:36:06;8.20;;;1.90;;
10894;SDS011;5500;49.886;8.074;2023-03-31T14:38:39;6.50;;;1.90;;
10894;SDS011;5500;49.886;8.074;2023-03-31T14:41:12;4.33;;;1.60;;
10894;SDS011;5500;49.886;8.074;2023-03-31T14:43:46;8.17;;;2.00;;
10894;SDS011;5500;49.886;8.074;2023-03-31T14:46:18;6.53;;;1.67;;
10894;SDS011;5500;49.886;8.074;2023-03-31T14:48:47;3.20;;;0.90;;
10894;SDS011;5500;49.886;8.074;2023-03-31T14:51:18;2.20;;;1.00;;
10894;SDS011;5500;49.886;8.074;2023-03-31T14:53:54;3.13;;;1.13;;
10894;SDS011;5500;49.886;8.074;2023-03-31T14:56:25;1.20;;;0.80;;
10894;SDS011;5500;49.886;8.074;2023-03-31T14:58:56;3.53;;;1.13;;
10894;SDS011;5500;49.886;8.074;2023-03-31T15:01:24;1.93;;;0.90;;
10894;SDS011;5500;49.886;8.074;2023-03-31T15:03:55;4.93;;;1.10;;
10894;SDS011;5500;49.886;8.074;2023-03-31T15:06:24;4.63;;;1.40;;
10894;SDS011;5500;49.886;8.074;2023-03-31T15:08:54;3.67;;;1.27;;
10894;SDS011;5500;49.886;8.074;2023-03-31T15:11:23;5.87;;;1.70;;
10894;SDS011;5500;49.886;8.074;2023-03-31T15:13:54;5.30;;;1.40;;
10894;SDS011;5500;49.886;8.074;2023-03-31T15:16:32;3.77;;;1.40;;
10894;SDS011;5500;49.886;8.074;2023-03-31T15:19:04;5.37;;;1.53;;
10894;SDS011;5500;49.886;8.074;2023-03-31T15:21:38;5.43;;;1.70;;
10894;SDS011;5500;49.886;8.074;2023-03-31T15:24:06;4.50;;;1.80;;
10894;SDS011;5500;49.886;8.074;2023-03-31T15:26:34;3.47;;;1.50;;
10894;SDS011;5500;49.886;8.074;2023-03-31T15:29:07;6.63;;;1.83;;
10894;SDS011;5500;49.886;8.074;2023-03-31T15:31:37;8.23;;;1.90;;
10894;SDS011;5500;49.886;8.074;2023-03-31T15:34:18;5.67;;;1.60;;
10894;SDS011;5500;49.886;8.074;2023-03-31T15:36:50;7.03;;;2.17;;
10894;SDS011;5500;49.886;8.074;2023-03-31T15:39:20;6.40;;;1.83;;
10894;SDS011;5500;49.886;8.074;2023-03-31T15:41:48;6.20;;;1.60;;
10894;SDS011;5500;49.886;8.074;2023-03-31T15:44:26;6.00;;;2.07;;